Time;durP1;ratioP1;P1;durP2;ratioP2;P2;SDS_P1;SDS_P2;PMS_P1;PMS_P2;Temp;Humidity;BMP_temperature;BMP_pressure;BME280_temperature;BME280_humidity;BME280_pressure;Samples;Min_cycle;Max_cycle;Signal;HPM_P1;HPM_P2
2023/01/08 00:04:04;;;;;;;211.70;80.80;;;;;;;3.73;100.00;98588.73;214087;1310;22475;-75
2023/01/08 00:09:06;;;;;;;212.90;81.60;;;;;;;3.72;100.00;98590.15;214281;1310;22479;-76
2023/01/08 00:14:10;;;;;;;233.10;91.40;;;;;;;3.64;100.00;98585.56;214241;1310;22471;-75
2023/01/08 00:19:12;;;;;;;216.50;81.40;;;;;;;3.54;100.00;98578.25;214303;1310;22924;-74
2023/01/08 00:24:14;;;;;;;216.60;83.40;;;;;;;3.39;100.00;98576.26;213888;1310;24277;-75
2023/01/08 00:29:16;;;;;;;232.30;89.40;;;;;;;3.20;100.00;98575.17;214017;1310;22534;-76
2023/01/08 00:34:23;;;;;;;234.20;90.10;;;;;;;3.08;100.00;98569.40;213882;1310;22536;-76
2023/01/08 00:39:25;;;;;;;226.20;84.00;;;;;;;2.97;100.00;98568.98;213989;1310;24308;-75
2023/01/08 00:44:26;;;;;;;236.20;88.90;;;;;;;2.85;100.00;98568.88;214043;1301;22615;-74
2023/01/08 00:49:28;;;;;;;234.90;86.40;;;;;;;2.73;100.00;98560.76;214137;1310;22507;-74
2023/01/08 00:54:30;;;;;;;233.10;83.00;;;;;;;2.62;100.00;98554.77;214066;1310;22484;-75
2023/01/08 00:59:32;;;;;;;195.30;74.50;;;;;;;2.50;100.00;98558.71;214003;1310;25132;-76
2023/01/08 01:04:34;;;;;;;204.40;75.50;;;;;;;2.39;100.00;98563.73;213929;1310;22499;-75
2023/01/08 01:09:36;;;;;;;209.10;76.50;;;;;;;2.28;100.00;98554.39;214056;1310;23797;-75
2023/01/08 01:14:38;;;;;;;236.00;88.50;;;;;;;2.15;100.00;98545.20;213975;1307;23735;-75
2023/01/08 01:19:40;;;;;;;257.40;93.80;;;;;;;2.05;100.00;98539.80;214061;1310;27988;-76
2023/01/08 01:24:42;;;;;;;132.90;50.80;;;;;;;1.97;100.00;98538.75;213912;1310;22566;-75
2023/01/08 01:29:44;;;;;;;148.50;56.20;;;;;;;1.90;100.00;98527.95;213963;1305;22479;-75
2023/01/08 01:34:45;;;;;;;137.70;52.20;;;;;;;1.88;100.00;98522.60;214193;1310;25321;-76
2023/01/08 01:39:47;;;;;;;151.10;58.80;;;;;;;1.84;100.00;98517.13;214002;1310;24675;-74
2023/01/08 01:44:49;;;;;;;121.70;53.20;;;;;;;1.80;100.00;98511.61;214294;1310;25268;-75
2023/01/08 01:50:02;;;;;;;168.00;65.80;;;;;;;1.73;100.00;98510.83;213953;1310;22656;-76
2023/01/08 01:55:06;;;;;;;131.10;53.20;;;;;;;1.63;100.00;98507.84;213968;1310;22459;-75
2023/01/08 02:00:08;;;;;;;155.30;58.40;;;;;;;1.53;100.00;98508.23;214184;1310;25523;-75
2023/01/08 02:05:13;;;;;;;187.70;63.60;;;;;;;1.48;100.00;98513.47;214068;1311;22739;-75
2023/01/08 02:10:52;;;;;;;169.70;60.00;;;;;;;1.42;100.00;98507.02;214307;1310;24328;-75
2023/01/08 02:16:02;;;;;;;115.30;43.50;;;;;;;1.35;100.00;98510.05;213406;1310;22531;-76
2023/01/08 02:21:09;;;;;;;153.20;56.30;;;;;;;1.29;100.00;98511.54;214269;1310;22525;-75
2023/01/08 02:26:14;;;;;;;151.20;55.30;;;;;;;1.23;100.00;98500.13;214488;1297;22481;-76
2023/01/08 02:31:17;;;;;;;166.90;61.00;;;;;;;1.17;100.00;98492.87;213906;1310;24480;-76
2023/01/08 02:36:37;;;;;;;163.70;59.00;;;;;;;1.06;100.00;98492.86;214077;1310;22471;-77
2023/01/08 02:42:03;;;;;;;153.50;54.90;;;;;;;0.96;100.00;98500.56;214086;1310;24376;-75
2023/01/08 02:47:10;;;;;;;146.60;53.10;;;;;;;0.90;100.00;98490.52;213735;1310;23297;-76
2023/01/08 02:52:14;;;;;;;135.80;51.90;;;;;;;0.82;100.00;98483.98;213982;1310;22646;-76
2023/01/08 02:57:17;;;;;;;123.80;49.90;;;;;;;0.75;100.00;98476.77;214271;1307;22478;-77
2023/01/08 03:02:19;;;;;;;149.10;52.50;;;;;;;0.68;100.00;98472.35;214179;1310;22461;-76
2023/01/08 03:07:22;;;;;;;148.60;51.10;;;;;;;0.64;100.00;98480.14;214147;1306;22948;-76
2023/01/08 03:12:39;;;;;;;158.30;56.20;;;;;;;0.61;100.00;98475.93;214100;1308;25468;-76
2023/01/08 03:17:49;;;;;;;151.60;54.80;;;;;;;0.58;100.00;98471.49;214055;1310;24273;-75
2023/01/08 03:22:55;;;;;;;130.80;46.70;;;;;;;0.54;100.00;98470.42;214344;1310;22467;-76
2023/01/08 03:28:02;;;;;;;162.00;55.80;;;;;;;0.49;100.00;98473.47;214132;1310;23903;-76
2023/01/08 03:33:07;;;;;;;134.70;51.20;;;;;;;0.46;100.00;98471.36;214014;1310;22481;-75
2023/01/08 03:38:19;;;;;;;128.10;46.50;;;;;;;0.46;100.00;98463.50;214074;1310;22598;-75
2023/01/08 03:43:21;;;;;;;137.40;50.40;;;;;;;0.46;100.00;98464.80;214011;1310;24132;-76
2023/01/08 03:48:26;;;;;;;144.30;52.20;;;;;;;0.46;100.00;98465.29;214034;1310;22599;-75
2023/01/08 03:53:28;;;;;;;156.30;53.30;;;;;;;0.46;100.00;98468.25;214203;1310;22488;-75
2023/01/08 03:58:29;;;;;;;120.90;43.00;;;;;;;0.45;100.00;98459.38;213984;1310;22467;-74
2023/01/08 04:03:31;;;;;;;136.30;50.20;;;;;;;0.45;100.00;98450.98;214032;1310;22509;-75
2023/01/08 04:08:33;;;;;;;144.60;52.80;;;;;;;0.47;100.00;98459.35;214045;1310;25276;-75
2023/01/08 04:13:35;;;;;;;145.70;52.60;;;;;;;0.48;100.00;98461.75;213921;1310;24276;-75
2023/01/08 04:18:37;;;;;;;133.40;48.20;;;;;;;0.47;100.00;98450.30;214236;1310;25572;-75
2023/01/08 04:23:39;;;;;;;108.50;40.40;;;;;;;0.46;100.00;98434.13;214095;1310;23332;-76
2023/01/08 04:28:40;;;;;;;122.00;42.30;;;;;;;0.42;100.00;98428.58;214010;1310;22997;-74
2023/01/08 04:33:42;;;;;;;129.30;46.40;;;;;;;0.35;100.00;98427.32;213964;1309;23874;-76
2023/01/08 04:38:44;;;;;;;108.90;40.70;;;;;;;0.34;100.00;98429.49;214118;1310;22561;-75
2023/01/08 04:43:45;;;;;;;124.20;47.00;;;;;;;0.31;100.00;98431.02;214082;1310;22500;-76
2023/01/08 04:48:47;;;;;;;131.00;50.60;;;;;;;0.29;100.00;98433.66;214017;1310;25365;-74
2023/01/08 04:53:49;;;;;;;127.30;47.20;;;;;;;0.36;100.00;98436.86;213931;1310;24280;-75
2023/01/08 04:58:51;;;;;;;114.10;45.40;;;;;;;0.46;100.00;98432.13;214029;1310;23753;-75
2023/01/08 05:03:59;;;;;;;114.60;44.10;;;;;;;0.52;100.00;98430.52;214012;1310;25259;-75
2023/01/08 05:09:00;;;;;;;152.30;55.80;;;;;;;0.57;100.00;98422.39;214000;1310;22586;-73
2023/01/08 05:14:02;;;;;;;136.50;50.90;;;;;;;0.61;100.00;98421.75;214098;1310;22464;-76
2023/01/08 05:19:04;;;;;;;187.30;60.90;;;;;;;0.63;100.00;98411.45;214012;1310;25210;-75
2023/01/08 05:24:08;;;;;;;167.20;59.10;;;;;;;0.62;100.00;98413.13;213623;1310;22489;-75
2023/01/08 05:29:09;;;;;;;147.90;50.40;;;;;;;0.65;100.00;98406.07;213996;1310;22472;-76
2023/01/08 05:34:11;;;;;;;129.80;47.70;;;;;;;0.62;100.00;98396.83;214072;1310;22504;-76
2023/01/08 05:39:13;;;;;;;145.30;49.30;;;;;;;0.56;100.00;98398.77;214085;1310;22471;-76
2023/01/08 05:44:15;;;;;;;120.70;46.10;;;;;;;0.55;100.00;98407.87;214021;1310;22492;-75
2023/01/08 05:49:17;;;;;;;149.50;47.40;;;;;;;0.57;100.00;98405.84;214031;1311;22467;-75
2023/01/08 05:54:18;;;;;;;149.20;53.00;;;;;;;0.63;100.00;98404.55;214196;1304;22465;-74
2023/01/08 05:59:20;;;;;;;149.20;48.60;;;;;;;0.73;100.00;98398.36;213967;1308;22464;-76
2023/01/08 06:04:22;;;;;;;130.70;47.10;;;;;;;0.81;100.00;98391.35;214006;1310;24311;-76
2023/01/08 06:09:24;;;;;;;141.80;50.60;;;;;;;0.85;100.00;98377.35;214096;1310;22459;-75
2023/01/08 06:14:26;;;;;;;159.10;54.40;;;;;;;0.87;100.00;98371.27;214124;1310;22474;-77
2023/01/08 06:19:27;;;;;;;143.90;49.00;;;;;;;0.85;100.00;98376.61;213931;1310;22781;-75
2023/01/08 06:24:29;;;;;;;113.20;42.90;;;;;;;0.76;100.00;98377.65;214044;1310;22462;-75
2023/01/08 06:29:31;;;;;;;158.50;51.20;;;;;;;0.61;100.00;98374.81;214077;1310;23732;-75
2023/01/08 06:34:32;;;;;;;152.80;51.80;;;;;;;0.54;100.00;98372.45;213790;1310;25258;-75
2023/01/08 06:39:34;;;;;;;154.70;55.10;;;;;;;0.49;100.00;98363.62;214053;1310;25367;-75
2023/01/08 06:44:36;;;;;;;132.10;46.50;;;;;;;0.45;100.00;98360.33;213850;1310;24309;-75
2023/01/08 06:49:38;;;;;;;105.20;40.90;;;;;;;0.42;100.00;98365.16;214080;1300;22465;-75
2023/01/08 06:54:39;;;;;;;147.70;54.40;;;;;;;0.41;100.00;98364.30;214037;1310;25484;-77
2023/01/08 06:59:41;;;;;;;153.90;54.90;;;;;;;0.38;100.00;98367.81;214037;1310;24946;-75
2023/01/08 07:04:43;;;;;;;153.40;55.70;;;;;;;0.40;100.00;98368.60;214047;1310;22473;-74
2023/01/08 07:09:45;;;;;;;122.00;44.20;;;;;;;0.46;100.00;98362.14;213889;1310;25305;-75
2023/01/08 07:14:47;;;;;;;147.30;52.00;;;;;;;0.48;100.00;98357.27;214014;1310;22500;-75
2023/01/08 07:19:49;;;;;;;149.40;52.00;;;;;;;0.52;100.00;98353.86;213933;1310;25602;-74
2023/01/08 07:24:51;;;;;;;161.50;59.30;;;;;;;0.63;100.00;98350.45;214178;1310;22856;-76
2023/01/08 07:29:54;;;;;;;147.40;53.70;;;;;;;0.76;100.00;98351.54;214496;1310;23781;-76
2023/01/08 07:34:58;;;;;;;133.60;47.80;;;;;;;0.86;100.00;98358.17;214262;1310;22465;-76
2023/01/08 07:39:59;;;;;;;143.50;49.70;;;;;;;1.00;100.00;98341.16;214024;1306;22640;-73
2023/01/08 07:45:02;;;;;;;166.60;56.90;;;;;;;1.19;100.00;98327.27;214000;1304;25278;-74
2023/01/08 07:50:04;;;;;;;195.70;62.90;;;;;;;1.44;100.00;98323.50;214136;1310;25211;-73
2023/01/08 07:55:06;;;;;;;193.90;63.40;;;;;;;1.65;100.00;98321.92;214225;1310;22460;-73
2023/01/08 08:00:09;;;;;;;193.70;69.20;;;;;;;1.84;100.00;98325.38;214141;1310;22484;-73
2023/01/08 08:05:11;;;;;;;184.10;63.20;;;;;;;1.95;100.00;98321.10;213823;1311;127693;-73
2023/01/08 08:10:39;;;;;;;192.90;66.30;;;;;;;1.99;100.00;98313.44;219828;1307;22242;-73
2023/01/08 08:15:41;;;;;;;181.50;61.60;;;;;;;2.04;100.00;98312.33;219599;1315;24188;-73
2023/01/08 08:20:43;;;;;;;177.10;61.00;;;;;;;2.11;100.00;98312.90;219608;1315;24336;-72
2023/01/08 08:25:44;;;;;;;165.50;59.00;;;;;;;2.23;100.00;98311.90;219818;1315;24256;-72
2023/01/08 08:30:46;;;;;;;236.80;91.80;;;;;;;2.37;100.00;98309.55;219720;1315;24308;-75
2023/01/08 08:35:49;;;;;;;153.20;53.90;;;;;;;2.54;100.00;98306.55;219722;1315;24140;-72
2023/01/08 08:40:51;;;;;;;123.20;43.40;;;;;;;2.71;100.00;98306.44;220047;1312;24117;-73
2023/01/08 08:45:56;;;;;;;100.20;35.90;;;;;;;2.89;100.00;98304.50;220321;1312;24170;-73
2023/01/08 08:50:58;;;;;;;128.80;41.80;;;;;;;3.09;100.00;98301.67;220403;1305;24203;-73
2023/01/08 08:56:00;;;;;;;119.90;43.60;;;;;;;3.36;100.00;98290.20;220568;1312;24150;-72
2023/01/08 09:01:03;;;;;;;119.60;39.90;;;;;;;3.65;100.00;98287.08;220052;1312;24436;-73
2023/01/08 09:06:05;;;;;;;122.90;43.10;;;;;;;3.94;100.00;98279.15;220322;1307;22199;-73
2023/01/08 09:11:07;;;;;;;127.50;44.20;;;;;;;4.26;100.00;98273.54;220337;1312;24941;-73
2023/01/08 09:16:09;;;;;;;124.40;44.20;;;;;;;4.60;100.00;98260.64;220395;1312;24125;-73
2023/01/08 09:21:11;;;;;;;119.30;47.40;;;;;;;4.96;100.00;98256.46;220233;1312;24204;-74
2023/01/08 09:26:13;;;;;;;120.30;45.80;;;;;;;5.30;100.00;98255.05;220315;1312;24795;-73
2023/01/08 09:31:15;;;;;;;140.20;50.50;;;;;;;5.63;100.00;98245.60;220293;1311;24160;-74
2023/01/08 09:36:18;;;;;;;129.80;47.80;;;;;;;5.97;100.00;98234.33;220598;1312;24203;-73
2023/01/08 09:41:24;;;;;;;113.50;43.40;;;;;;;6.23;100.00;98235.84;220225;1312;22174;-73
2023/01/08 09:46:27;;;;;;;111.30;41.60;;;;;;;6.41;100.00;98225.16;220295;1312;24145;-73
2023/01/08 09:51:34;;;;;;;117.50;44.30;;;;;;;6.55;100.00;98211.19;220563;1312;24229;-73
2023/01/08 09:56:37;;;;;;;93.10;38.80;;;;;;;6.63;100.00;98203.11;220296;1312;24243;-73
2023/01/08 10:01:39;;;;;;;98.70;41.10;;;;;;;6.68;100.00;98195.05;220568;1312;22849;-73
2023/01/08 10:06:59;;;;;;;107.00;42.90;;;;;;;6.72;100.00;98187.83;220309;1312;24163;-73
2023/01/08 10:12:03;;;;;;;110.10;41.90;;;;;;;6.73;100.00;98189.21;220419;1312;24150;-73
2023/01/08 10:17:30;;;;;;;97.30;39.50;;;;;;;6.77;100.00;98176.09;220243;1312;24292;-73
2023/01/08 10:22:32;;;;;;;59.80;25.80;;;;;;;6.89;100.00;98178.91;220378;1312;24607;-73
2023/01/08 10:27:57;;;;;;;70.90;31.50;;;;;;;6.89;100.00;98176.36;220544;1312;23015;-74
2023/01/08 10:33:10;;;;;;;60.30;28.50;;;;;;;6.69;100.00;98172.89;220333;1312;22161;-73
2023/01/08 10:38:48;;;;;;;82.00;36.20;;;;;;;6.52;100.00;98167.26;220272;1312;22145;-73
2023/01/08 10:43:59;;;;;;;85.70;38.60;;;;;;;6.57;100.00;98160.73;220425;1312;24166;-74
2023/01/08 10:49:05;;;;;;;107.00;42.50;;;;;;;6.62;100.00;98165.13;220355;1312;24863;-73
2023/01/08 10:54:22;;;;;;;103.60;43.10;;;;;;;6.74;100.00;98152.20;220349;1312;24171;-72
2023/01/08 10:59:24;;;;;;;93.20;40.80;;;;;;;6.83;100.00;98138.70;220363;1312;24204;-74
2023/01/08 11:04:32;;;;;;;92.40;41.40;;;;;;;6.87;100.00;98133.94;220398;1311;24016;-73
2023/01/08 11:09:46;;;;;;;106.80;44.10;;;;;;;6.93;100.00;98128.35;220325;1312;24205;-73
2023/01/08 11:14:48;;;;;;;96.10;40.40;;;;;;;6.99;100.00;98127.86;220469;1300;24191;-73
2023/01/08 11:19:52;;;;;;;100.10;41.20;;;;;;;7.06;100.00;98129.36;220577;1312;22201;-74
2023/01/08 11:24:56;;;;;;;76.00;34.60;;;;;;;7.19;100.00;98124.90;220377;1312;22234;-73
2023/01/08 11:30:05;;;;;;;83.10;38.00;;;;;;;7.23;100.00;98108.63;220590;1312;24155;-74
2023/01/08 11:35:23;;;;;;;76.80;37.30;;;;;;;7.20;100.00;98105.23;220423;1300;22286;-74
2023/01/08 11:40:41;;;;;;;72.40;35.00;;;;;;;7.29;100.00;98095.08;220591;1312;24131;-73
2023/01/08 11:46:09;;;;;;;77.20;38.00;;;;;;;7.37;99.99;98084.92;220320;1312;24630;-73
2023/01/08 11:51:26;;;;;;;78.70;38.30;;;;;;;7.41;100.00;98076.66;220403;1310;22135;-74
2023/01/08 11:57:03;;;;;;;82.70;36.50;;;;;;;7.54;100.00;98082.95;220603;1300;22192;-74
2023/01/08 12:02:33;;;;;;;95.20;44.10;;;;;;;7.71;100.00;98085.11;220489;1312;22427;-73
2023/01/08 12:07:48;;;;;;;101.50;45.40;;;;;;;7.93;100.00;98076.81;220430;1312;24533;-73
2023/01/08 12:13:19;;;;;;;77.80;34.10;;;;;;;8.11;100.00;98070.87;220580;1312;22933;-73
2023/01/08 12:19:01;;;;;;;80.00;39.00;;;;;;;8.19;99.95;98069.46;220470;1312;24986;-73
2023/01/08 12:24:15;;;;;;;56.90;26.30;;;;;;;8.21;98.33;98064.41;220607;1312;22876;-72
2023/01/08 12:29:40;;;;;;;51.80;26.80;;;;;;;8.20;98.27;98057.45;220566;1309;22128;-73
2023/01/08 12:34:50;;;;;;;39.00;19.20;;;;;;;8.22;98.03;98066.43;220447;1310;22184;-73
2023/01/08 12:40:01;;;;;;;36.00;19.40;;;;;;;8.23;97.33;98070.36;220517;1311;24102;-72
2023/01/08 12:45:05;;;;;;;;;;;;;;;8.21;97.78;98051.45;220343;1312;24368;-74
2023/01/08 12:50:13;;;;;;;57.70;25.50;;;;;;;8.32;98.24;98047.33;220512;1312;22228;-74
2023/01/08 12:55:26;;;;;;;40.70;19.70;;;;;;;8.36;97.93;98045.45;220576;1311;24890;-74
2023/01/08 13:00:40;;;;;;;45.40;20.90;;;;;;;8.28;96.98;98046.77;220280;1312;24192;-74
2023/01/08 13:05:43;;;;;;;38.60;17.50;;;;;;;8.28;97.33;98051.08;220454;1312;24277;-74
2023/01/08 13:10:52;;;;;;;25.70;12.60;;;;;;;8.29;96.58;98060.63;220439;1312;22142;-73
2023/01/08 13:16:05;;;;;;;25.20;12.40;;;;;;;8.20;95.84;98058.45;220264;1312;24201;-73
2023/01/08 13:21:10;;;;;;;26.90;13.20;;;;;;;8.20;95.64;98063.02;220387;1312;22160;-73
2023/01/08 13:26:32;;;;;;;31.10;14.60;;;;;;;8.21;95.59;98063.15;220415;1312;24291;-73
2023/01/08 13:31:40;;;;;;;31.80;16.70;;;;;;;8.22;95.52;98062.64;220068;1312;24116;-74
2023/01/08 13:36:41;;;;;;;29.10;13.60;;;;;;;8.19;95.85;98063.06;220473;1312;22239;-73
2023/01/08 13:41:57;;;;;;;26.60;13.90;;;;;;;8.09;95.42;98068.07;220516;1312;24310;-73
2023/01/08 13:47:15;;;;;;;37.50;18.10;;;;;;;7.94;95.20;98065.72;220313;1312;24191;-73
2023/01/08 13:52:31;;;;;;;31.30;16.10;;;;;;;7.87;95.82;98066.92;220311;1312;22265;-73
2023/01/08 13:57:40;;;;;;;40.90;19.50;;;;;;;7.80;95.52;98076.61;220220;1288;22162;-73
2023/01/08 14:02:49;;;;;;;49.00;23.60;;;;;;;7.76;95.68;98079.50;220490;1307;24217;-74
2023/01/08 14:07:51;;;;;;;55.90;28.00;;;;;;;7.79;96.11;98070.29;220364;1312;24130;-73
2023/01/08 14:13:03;;;;;;;65.20;31.50;;;;;;;7.86;96.36;98066.99;220512;1312;24203;-73
2023/01/08 14:18:05;;;;;;;82.70;36.50;;;;;;;7.89;96.50;98051.17;220347;1312;25001;-73
2023/01/08 14:23:12;;;;;;;87.20;40.00;;;;;;;7.86;96.31;98039.95;220548;1312;22246;-74
2023/01/08 14:28:17;;;;;;;89.70;41.70;;;;;;;7.76;96.47;98043.06;220438;1312;24207;-73
2023/01/08 14:33:28;;;;;;;89.30;41.70;;;;;;;7.66;96.71;98041.71;220541;1312;22231;-73
2023/01/08 14:38:29;;;;;;;94.00;43.10;;;;;;;7.53;96.72;98036.06;220363;1312;22159;-73
2023/01/08 14:43:37;;;;;;;83.70;37.10;;;;;;;7.40;96.75;98009.48;220572;1310;24809;-72
2023/01/08 14:48:42;;;;;;;83.00;39.00;;;;;;;7.18;96.25;98017.41;220548;1312;22236;-73
2023/01/08 14:53:48;;;;;;;84.40;39.20;;;;;;;7.00;96.53;98018.94;220551;1312;24205;-73
2023/01/08 14:58:51;;;;;;;91.30;41.60;;;;;;;6.83;96.77;98018.80;220590;1310;24081;-73
2023/01/08 15:04:12;;;;;;;89.60;42.30;;;;;;;6.69;97.07;98016.75;220529;1312;24090;-73
2023/01/08 15:09:28;;;;;;;95.90;41.30;;;;;;;6.53;97.19;98011.57;220608;1312;24199;-73
2023/01/08 15:14:30;;;;;;;96.20;42.20;;;;;;;6.38;97.45;98006.17;220316;1312;24827;-72
2023/01/08 15:19:38;;;;;;;91.30;42.60;;;;;;;6.25;97.50;98005.07;220488;1312;22922;-73
2023/01/08 15:24:43;;;;;;;94.70;41.60;;;;;;;6.10;97.69;97998.21;220591;1312;24230;-73
2023/01/08 15:29:48;;;;;;;107.40;45.80;;;;;;;5.94;97.44;97996.96;220522;1303;24168;-73
2023/01/08 15:34:49;;;;;;;107.50;46.70;;;;;;;5.80;97.80;97999.02;220447;1312;24086;-73
2023/01/08 15:39:52;;;;;;;117.40;49.00;;;;;;;5.67;97.89;97993.36;220537;1312;24221;-73
2023/01/08 15:44:54;;;;;;;140.00;53.40;;;;;;;5.54;97.77;97983.43;220548;1312;24138;-73
2023/01/08 15:49:56;;;;;;;128.40;53.00;;;;;;;5.44;97.97;97991.64;220270;1312;24281;-73
2023/01/08 15:54:59;;;;;;;121.30;49.10;;;;;;;5.36;98.35;97994.16;220458;1312;22146;-72
2023/01/08 16:00:01;;;;;;;120.40;52.30;;;;;;;5.28;98.66;97994.79;220525;1312;24117;-73
2023/01/08 16:05:06;;;;;;;109.20;46.60;;;;;;;5.19;98.31;97978.09;220519;1312;25096;-73
2023/01/08 16:10:08;;;;;;;158.60;66.20;;;;;;;5.05;97.80;97974.86;220518;1312;24081;-73
2023/01/08 16:15:13;;;;;;;175.50;75.10;;;;;;;4.96;98.12;97968.05;220492;1312;24917;-72
2023/01/08 16:20:15;;;;;;;180.30;78.90;;;;;;;4.92;98.68;97972.63;220307;1312;24903;-72
2023/01/08 16:25:17;;;;;;;196.40;84.80;;;;;;;4.92;98.92;97970.08;220434;1312;22268;-72
2023/01/08 16:30:19;;;;;;;232.10;92.70;;;;;;;4.93;99.26;97963.54;220404;1312;22109;-73
2023/01/08 16:35:21;;;;;;;262.60;110.30;;;;;;;4.91;99.08;97959.61;220512;1312;22161;-73
2023/01/08 16:40:23;;;;;;;254.90;107.80;;;;;;;4.91;98.99;97960.58;220487;1312;22838;-73
2023/01/08 16:45:25;;;;;;;236.30;101.70;;;;;;;4.89;99.08;97953.52;220586;1312;24247;-73
2023/01/08 16:50:27;;;;;;;236.30;99.40;;;;;;;4.87;99.15;97957.14;220407;1312;25140;-73
2023/01/08 16:55:29;;;;;;;190.00;82.90;;;;;;;4.88;99.14;97961.02;220528;1312;24669;-73
2023/01/08 17:00:31;;;;;;;202.00;90.50;;;;;;;4.90;99.01;97968.11;220470;1312;24054;-73
2023/01/08 17:05:35;;;;;;;177.40;80.00;;;;;;;4.90;98.94;97968.33;220547;1312;24137;-73
2023/01/08 17:10:38;;;;;;;172.30;71.70;;;;;;;4.92;99.24;97970.49;220462;1312;23999;-73
2023/01/08 17:15:40;;;;;;;155.90;70.90;;;;;;;4.99;99.60;97969.78;220285;1312;24329;-75
2023/01/08 17:20:42;;;;;;;146.10;63.60;;;;;;;5.06;99.63;97973.48;220518;1312;22956;-72
2023/01/08 17:25:43;;;;;;;128.20;54.60;;;;;;;5.13;99.85;97967.97;220548;1312;25108;-74
2023/01/08 17:30:45;;;;;;;139.90;57.40;;;;;;;5.20;99.77;97975.02;220308;1312;24194;-72
2023/01/08 17:35:47;;;;;;;132.10;55.60;;;;;;;5.25;99.83;97978.12;220545;1312;24355;-74
2023/01/08 17:40:49;;;;;;;138.50;56.80;;;;;;;5.30;99.69;97974.75;220485;1307;24224;-73
2023/01/08 17:45:51;;;;;;;127.70;56.30;;;;;;;5.34;99.83;97969.00;220460;1312;24157;-73
2023/01/08 17:50:56;;;;;;;129.80;58.70;;;;;;;5.34;99.81;97972.97;220524;1307;24168;-72
2023/01/08 17:56:00;;;;;;;114.00;50.80;;;;;;;5.35;99.45;97976.20;220452;1312;24838;-73
2023/01/08 18:01:03;;;;;;;123.50;55.50;;;;;;;5.26;99.01;97969.35;220502;1312;24152;-72
2023/01/08 18:06:08;;;;;;;177.00;77.40;;;;;;;5.14;98.86;97963.56;220567;1312;24307;-73
2023/01/08 18:11:10;;;;;;;190.60;84.60;;;;;;;5.09;99.26;97961.04;220315;1312;24214;-73
2023/01/08 18:16:13;;;;;;;206.20;91.60;;;;;;;5.09;99.49;97954.77;220307;1312;24128;-74
2023/01/08 18:21:15;;;;;;;167.90;77.40;;;;;;;5.15;99.87;97950.77;220573;1312;24171;-73
2023/01/08 18:26:19;;;;;;;164.20;74.40;;;;;;;5.19;99.78;97945.07;220512;1312;24292;-72
2023/01/08 18:31:21;;;;;;;127.10;61.70;;;;;;;5.23;99.87;97925.55;220509;1312;24158;-73
2023/01/08 18:36:23;;;;;;;146.50;67.20;;;;;;;5.22;99.74;97933.14;220548;1312;22232;-73
2023/01/08 18:46:45;;;;;;;162.00;72.30;;;;;;;5.33;99.86;97915.14;220512;1312;24112;-72
2023/01/08 18:51:49;;;;;;;173.40;76.40;;;;;;;5.35;99.66;97905.02;220496;1312;24712;-73
2023/01/08 18:56:51;;;;;;;178.80;83.00;;;;;;;5.35;99.50;97897.17;220454;1311;22284;-72
2023/01/08 19:01:53;;;;;;;173.60;81.30;;;;;;;5.38;99.69;97896.84;220491;1312;24155;-73
2023/01/08 19:06:56;;;;;;;157.80;67.50;;;;;;;5.41;99.70;97898.04;220480;1312;24811;-72
2023/01/08 19:11:58;;;;;;;157.40;73.40;;;;;;;5.44;99.72;97895.42;220555;1312;24693;-73
2023/01/08 19:17:00;;;;;;;161.70;76.60;;;;;;;5.49;99.81;97887.94;220457;1312;24875;-73
2023/01/08 19:22:02;;;;;;;166.90;73.20;;;;;;;5.54;99.88;97880.67;220497;1312;22235;-72
2023/01/08 19:27:04;;;;;;;155.90;71.10;;;;;;;5.60;99.83;97879.68;220518;1312;24217;-74
2023/01/08 19:32:06;;;;;;;144.30;66.90;;;;;;;5.62;99.79;97878.92;220536;1304;24229;-73
2023/01/08 19:37:10;;;;;;;141.10;63.10;;;;;;;5.64;99.62;97875.98;220510;1312;22303;-73
2023/01/08 19:47:32;;;;;;;;;;;;;;;5.69;99.60;97864.16;220578;1312;25053;-74
2023/01/08 19:52:34;;;;;;;135.90;58.00;;;;;;;5.70;99.88;97857.17;220558;1312;24075;-73
2023/01/08 19:57:36;;;;;;;129.80;57.30;;;;;;;5.73;99.95;97857.63;220489;1312;25128;-73
2023/01/08 20:02:38;;;;;;;136.40;61.60;;;;;;;5.78;99.82;97847.98;220423;1301;22218;-72
2023/01/08 20:07:40;;;;;;;127.20;59.40;;;;;;;5.82;99.77;97830.14;220396;1305;131724;-72
2023/01/08 20:12:42;;;;;;;123.40;53.60;;;;;;;5.86;99.74;97827.80;220551;1312;24138;-72
2023/01/08 20:17:44;;;;;;;111.70;49.60;;;;;;;5.91;99.84;97804.48;220248;1312;22183;-72
2023/01/08 20:22:46;;;;;;;111.90;48.20;;;;;;;5.92;99.27;97807.50;220490;1312;22184;-73
2023/01/08 20:27:48;;;;;;;145.70;64.50;;;;;;;5.92;99.20;97798.62;220516;1312;22355;-73
2023/01/08 20:32:49;;;;;;;146.90;65.10;;;;;;;5.94;99.37;97792.00;220437;1312;24165;-73
2023/01/08 20:37:51;;;;;;;159.20;68.90;;;;;;;5.95;99.54;97796.83;220437;1312;24135;-72
2023/01/08 20:42:53;;;;;;;184.40;76.20;;;;;;;5.96;99.31;97794.31;220496;1312;24125;-72
2023/01/08 20:47:55;;;;;;;156.00;69.40;;;;;;;5.98;99.43;97795.81;220302;1304;24932;-72
2023/01/08 20:52:57;;;;;;;159.80;67.90;;;;;;;6.01;99.49;97791.48;220496;1312;24698;-73
2023/01/08 20:57:59;;;;;;;148.50;66.70;;;;;;;6.05;99.62;97789.16;220445;1311;24031;-73
2023/01/08 21:03:01;;;;;;;124.60;54.90;;;;;;;6.09;99.47;97773.21;220491;1312;22185;-73
2023/01/08 21:08:03;;;;;;;117.40;50.20;;;;;;;6.12;99.45;97758.87;220552;1312;24152;-73
2023/01/08 21:13:05;;;;;;;122.80;52.20;;;;;;;6.15;99.01;97755.53;220482;1312;22202;-73
2023/01/08 21:18:07;;;;;;;134.80;58.40;;;;;;;6.19;99.33;97743.89;220496;1312;25076;-73
2023/01/08 21:23:08;;;;;;;132.20;58.50;;;;;;;6.22;99.03;97735.52;220527;1312;22967;-73
2023/01/08 21:28:10;;;;;;;130.10;62.40;;;;;;;6.19;98.93;97728.05;220514;1312;22213;-73
2023/01/08 21:33:12;;;;;;;136.90;64.10;;;;;;;6.16;98.92;97728.67;220523;1312;23343;-73
2023/01/08 21:38:13;;;;;;;129.40;59.70;;;;;;;6.11;98.64;97732.61;220448;1307;22201;-73
2023/01/08 21:48:36;;;;;;;153.60;70.60;;;;;;;6.03;98.83;97723.35;220572;1304;22226;-72
2023/01/08 21:53:38;;;;;;;138.80;65.30;;;;;;;6.00;98.68;97721.09;220495;1310;24059;-71
2023/01/08 21:58:39;;;;;;;153.80;69.00;;;;;;;5.95;98.60;97713.36;220475;1311;22246;-73
2023/01/08 22:03:41;;;;;;;139.60;63.70;;;;;;;5.93;98.58;97702.23;220532;1312;22241;-73
2023/01/08 22:08:44;;;;;;;144.20;64.50;;;;;;;5.91;98.65;97708.30;220496;1310;24146;-73
2023/01/08 22:13:52;;;;;;;146.50;62.00;;;;;;;5.91;98.95;97702.98;220499;1312;22835;-73
2023/01/08 22:18:54;;;;;;;119.40;52.50;;;;;;;5.94;99.03;97693.16;220449;1308;24311;-73
2023/01/08 22:23:55;;;;;;;120.60;53.10;;;;;;;5.95;99.36;97686.82;220300;1311;24188;-73
2023/01/08 22:29:01;;;;;;;115.30;53.80;;;;;;;5.98;99.17;97684.80;220495;1312;24158;-72
2023/01/08 22:34:03;;;;;;;113.10;49.90;;;;;;;6.02;99.21;97680.09;220445;1312;22114;-72
2023/01/08 22:39:05;;;;;;;118.00;51.50;;;;;;;6.00;99.17;97678.73;220501;1312;22180;-73
2023/01/08 22:44:10;;;;;;;103.50;45.10;;;;;;;5.97;99.05;97672.94;220495;1297;24256;-72
2023/01/08 22:49:12;;;;;;;96.40;43.70;;;;;;;5.90;98.82;97670.19;220332;1304;24154;-72
2023/01/08 22:54:16;;;;;;;98.70;40.90;;;;;;;5.76;98.86;97660.04;220519;1310;22390;-73
2023/01/08 22:59:20;;;;;;;101.40;39.80;;;;;;;5.61;99.25;97648.69;220274;1312;22782;-73
2023/01/08 23:04:22;;;;;;;88.40;38.80;;;;;;;5.46;99.14;97636.89;220520;1312;22989;-72
2023/01/08 23:09:24;;;;;;;100.90;41.20;;;;;;;5.30;99.16;97633.34;220490;1312;24343;-73
2023/01/08 23:14:26;;;;;;;95.30;39.50;;;;;;;5.14;99.22;97632.06;220504;1312;22191;-73
2023/01/08 23:19:27;;;;;;;89.10;37.50;;;;;;;5.01;99.48;97622.48;220537;1312;24222;-72